sensor_id;sensor_type;location;lat;lon;timestamp;temperature;humidity
7496;DHT22;3789;47.064;15.482;2022-07-22T00:01:15;23.50;90.80
7496;DHT22;3789;47.064;15.482;2022-07-22T00:03:51;23.40;90.60
7496;DHT22;3789;47.064;15.482;2022-07-22T00:06:20;23.40;90.80
7496;DHT22;3789;47.064;15.482;2022-07-22T00:08:50;23.30;91.10
7496;DHT22;3789;47.064;15.482;2022-07-22T00:11:24;23.30;91.20
7496;DHT22;3789;47.064;15.482;2022-07-22T00:13:54;23.30;90.40
7496;DHT22;3789;47.064;15.482;2022-07-22T00:16:26;23.30;90.50
7496;DHT22;3789;47.064;15.482;2022-07-22T00:18:57;23.20;90.40
7496;DHT22;3789;47.064;15.482;2022-07-22T00:21:27;23.00;90.80
7496;DHT22;3789;47.064;15.482;2022-07-22T00:23:59;22.90;90.50
7496;DHT22;3789;47.064;15.482;2022-07-22T00:26:28;22.90;90.80
7496;DHT22;3789;47.064;15.482;2022-07-22T00:28:57;22.90;91.10
7496;DHT22;3789;47.064;15.482;2022-07-22T00:31:28;23.00;91.20
7496;DHT22;3789;47.064;15.482;2022-07-22T00:33:56;22.90;91.00
7496;DHT22;3789;47.064;15.482;2022-07-22T00:36:27;22.80;91.60
7496;DHT22;3789;47.064;15.482;2022-07-22T00:38:57;22.50;92.00
7496;DHT22;3789;47.064;15.482;2022-07-22T00:41:28;22.30;92.10
7496;DHT22;3789;47.064;15.482;2022-07-22T00:44:07;22.20;92.30
7496;DHT22;3789;47.064;15.482;2022-07-22T00:46:40;22.20;92.10
7496;DHT22;3789;47.064;15.482;2022-07-22T00:49:21;22.30;92.00
7496;DHT22;3789;47.064;15.482;2022-07-22T00:51:51;22.30;91.10
7496;DHT22;3789;47.064;15.482;2022-07-22T00:54:19;22.30;91.20
7496;DHT22;3789;47.064;15.482;2022-07-22T00:56:48;22.30;91.10
7496;DHT22;3789;47.064;15.482;2022-07-22T00:59:25;22.30;91.20
7496;DHT22;3789;47.064;15.482;2022-07-22T01:02:01;22.30;90.50
7496;DHT22;3789;47.064;15.482;2022-07-22T01:04:41;22.40;90.40
7496;DHT22;3789;47.064;15.482;2022-07-22T01:07:09;22.50;90.50
7496;DHT22;3789;47.064;15.482;2022-07-22T01:09:43;22.50;90.70
7496;DHT22;3789;47.064;15.482;2022-07-22T01:12:11;22.50;90.90
7496;DHT22;3789;47.064;15.482;2022-07-22T01:14:51;22.40;90.80
7496;DHT22;3789;47.064;15.482;2022-07-22T01:17:28;22.40;90.50
7496;DHT22;3789;47.064;15.482;2022-07-22T01:20:06;22.30;90.80
7496;DHT22;3789;47.064;15.482;2022-07-22T01:22:36;22.20;90.80
7496;DHT22;3789;47.064;15.482;2022-07-22T01:25:05;22.10;90.80
7496;DHT22;3789;47.064;15.482;2022-07-22T01:27:36;22.10;90.50
7496;DHT22;3789;47.064;15.482;2022-07-22T01:30:09;22.10;90.50
7496;DHT22;3789;47.064;15.482;2022-07-22T01:32:40;22.20;91.30
7496;DHT22;3789;47.064;15.482;2022-07-22T01:35:07;22.20;90.20
7496;DHT22;3789;47.064;15.482;2022-07-22T01:37:34;22.20;90.80
7496;DHT22;3789;47.064;15.482;2022-07-22T01:40:02;22.10;91.00
7496;DHT22;3789;47.064;15.482;2022-07-22T01:42:30;21.90;91.10
7496;DHT22;3789;47.064;15.482;2022-07-22T01:44:57;22.00;90.80
7496;DHT22;3789;47.064;15.482;2022-07-22T01:47:24;22.10;91.70
7496;DHT22;3789;47.064;15.482;2022-07-22T01:49:51;22.10;91.80
7496;DHT22;3789;47.064;15.482;2022-07-22T01:52:18;22.10;91.70
7496;DHT22;3789;47.064;15.482;2022-07-22T01:54:45;22.20;92.30
7496;DHT22;3789;47.064;15.482;2022-07-22T01:57:12;22.20;92.60
7496;DHT22;3789;47.064;15.482;2022-07-22T01:59:39;22.10;92.50
7496;DHT22;3789;47.064;15.482;2022-07-22T02:02:06;22.10;92.20
7496;DHT22;3789;47.064;15.482;2022-07-22T02:04:34;22.00;92.00
7496;DHT22;3789;47.064;15.482;2022-07-22T02:07:01;21.90;91.90
7496;DHT22;3789;47.064;15.482;2022-07-22T02:09:28;21.90;91.70
7496;DHT22;3789;47.064;15.482;2022-07-22T02:11:55;21.90;91.60
7496;DHT22;3789;47.064;15.482;2022-07-22T02:14:22;21.90;91.70
7496;DHT22;3789;47.064;15.482;2022-07-22T02:16:50;21.80;91.80
7496;DHT22;3789;47.064;15.482;2022-07-22T02:19:17;21.70;91.80
7496;DHT22;3789;47.064;15.482;2022-07-22T02:21:44;21.70;91.60
7496;DHT22;3789;47.064;15.482;2022-07-22T02:24:11;21.60;91.40
7496;DHT22;3789;47.064;15.482;2022-07-22T02:26:38;21.60;91.20
7496;DHT22;3789;47.064;15.482;2022-07-22T02:29:05;21.60;90.70
7496;DHT22;3789;47.064;15.482;2022-07-22T02:31:33;21.80;90.40
7496;DHT22;3789;47.064;15.482;2022-07-22T02:34:00;21.90;91.20
7496;DHT22;3789;47.064;15.482;2022-07-22T02:36:27;21.90;90.50
7496;DHT22;3789;47.064;15.482;2022-07-22T02:38:56;21.80;90.70
7496;DHT22;3789;47.064;15.482;2022-07-22T02:41:24;21.80;91.00
7496;DHT22;3789;47.064;15.482;2022-07-22T02:43:51;21.60;91.40
7496;DHT22;3789;47.064;15.482;2022-07-22T02:46:25;21.60;92.10
7496;DHT22;3789;47.064;15.482;2022-07-22T02:48:52;21.60;93.70
7496;DHT22;3789;47.064;15.482;2022-07-22T02:51:20;21.60;93.10
7496;DHT22;3789;47.064;15.482;2022-07-22T02:53:47;21.60;92.30
7496;DHT22;3789;47.064;15.482;2022-07-22T02:56:14;21.50;92.10
7496;DHT22;3789;47.064;15.482;2022-07-22T02:58:42;21.50;92.80
7496;DHT22;3789;47.064;15.482;2022-07-22T03:01:09;21.50;92.90
7496;DHT22;3789;47.064;15.482;2022-07-22T03:03:36;21.50;92.60
7496;DHT22;3789;47.064;15.482;2022-07-22T03:06:04;21.50;92.60
7496;DHT22;3789;47.064;15.482;2022-07-22T03:08:31;21.50;93.60
7496;DHT22;3789;47.064;15.482;2022-07-22T03:10:58;21.40;92.80
7496;DHT22;3789;47.064;15.482;2022-07-22T03:13:25;21.40;92.90
7496;DHT22;3789;47.064;15.482;2022-07-22T03:15:52;21.50;93.30
7496;DHT22;3789;47.064;15.482;2022-07-22T03:18:19;21.50;93.10
7496;DHT22;3789;47.064;15.482;2022-07-22T03:20:47;21.40;92.70
7496;DHT22;3789;47.064;15.482;2022-07-22T03:23:14;21.40;92.90
7496;DHT22;3789;47.064;15.482;2022-07-22T03:25:41;21.40;93.70
7496;DHT22;3789;47.064;15.482;2022-07-22T03:28:08;21.40;94.70
7496;DHT22;3789;47.064;15.482;2022-07-22T03:30:35;21.30;94.90
7496;DHT22;3789;47.064;15.482;2022-07-22T03:33:03;21.30;94.90
7496;DHT22;3789;47.064;15.482;2022-07-22T03:35:30;21.30;94.90
7496;DHT22;3789;47.064;15.482;2022-07-22T03:37:57;21.30;95.30
7496;DHT22;3789;47.064;15.482;2022-07-22T03:40:24;21.30;95.30
7496;DHT22;3789;47.064;15.482;2022-07-22T03:42:51;21.40;95.60
7496;DHT22;3789;47.064;15.482;2022-07-22T03:45:19;21.30;95.40
7496;DHT22;3789;47.064;15.482;2022-07-22T03:47:46;21.30;94.40
7496;DHT22;3789;47.064;15.482;2022-07-22T03:50:13;21.20;94.80
7496;DHT22;3789;47.064;15.482;2022-07-22T03:52:40;21.20;96.90
7496;DHT22;3789;47.064;15.482;2022-07-22T03:55:07;21.30;97.70
7496;DHT22;3789;47.064;15.482;2022-07-22T03:57:35;21.40;97.30
7496;DHT22;3789;47.064;15.482;2022-07-22T04:00:03;21.60;96.60
7496;DHT22;3789;47.064;15.482;2022-07-22T04:02:31;21.90;97.20
7496;DHT22;3789;47.064;15.482;2022-07-22T04:04:58;22.30;97.40
7496;DHT22;3789;47.064;15.482;2022-07-22T04:07:26;22.80;96.40
7496;DHT22;3789;47.064;15.482;2022-07-22T04:09:53;23.10;95.20
7496;DHT22;3789;47.064;15.482;2022-07-22T04:12:33;23.40;94.60
7496;DHT22;3789;47.064;15.482;2022-07-22T04:15:01;23.80;94.10
7496;DHT22;3789;47.064;15.482;2022-07-22T04:17:29;23.90;93.10
7496;DHT22;3789;47.064;15.482;2022-07-22T04:19:56;24.00;93.80
7496;DHT22;3789;47.064;15.482;2022-07-22T04:22:24;24.10;94.50
7496;DHT22;3789;47.064;15.482;2022-07-22T04:24:54;24.60;94.20
7496;DHT22;3789;47.064;15.482;2022-07-22T04:27:21;25.40;93.70
7496;DHT22;3789;47.064;15.482;2022-07-22T04:29:50;26.10;93.00
7496;DHT22;3789;47.064;15.482;2022-07-22T04:32:17;26.50;92.00
7496;DHT22;3789;47.064;15.482;2022-07-22T04:34:44;26.40;91.70
7496;DHT22;3789;47.064;15.482;2022-07-22T04:37:11;26.10;92.90
7496;DHT22;3789;47.064;15.482;2022-07-22T04:39:39;26.20;93.60
7496;DHT22;3789;47.064;15.482;2022-07-22T04:42:07;26.70;93.10
7496;DHT22;3789;47.064;15.482;2022-07-22T04:44:34;27.20;92.50
7496;DHT22;3789;47.064;15.482;2022-07-22T04:47:01;27.50;92.40
7496;DHT22;3789;47.064;15.482;2022-07-22T04:49:34;27.40;91.60
7496;DHT22;3789;47.064;15.482;2022-07-22T04:52:03;27.20;91.90
7496;DHT22;3789;47.064;15.482;2022-07-22T04:54:31;27.10;92.60
7496;DHT22;3789;47.064;15.482;2022-07-22T04:56:58;26.60;93.00
7496;DHT22;3789;47.064;15.482;2022-07-22T04:59:25;25.80;94.10
7496;DHT22;3789;47.064;15.482;2022-07-22T05:01:52;25.40;95.20
7496;DHT22;3789;47.064;15.482;2022-07-22T05:04:20;25.30;95.70
7496;DHT22;3789;47.064;15.482;2022-07-22T05:06:47;25.20;96.00
7496;DHT22;3789;47.064;15.482;2022-07-22T05:09:14;25.30;95.90
7496;DHT22;3789;47.064;15.482;2022-07-22T05:11:41;25.30;95.70
7496;DHT22;3789;47.064;15.482;2022-07-22T05:14:08;25.20;96.20
7496;DHT22;3789;47.064;15.482;2022-07-22T05:16:36;25.20;96.10
7496;DHT22;3789;47.064;15.482;2022-07-22T05:19:04;25.40;95.90
7496;DHT22;3789;47.064;15.482;2022-07-22T05:21:32;25.50;95.50
7496;DHT22;3789;47.064;15.482;2022-07-22T05:24:00;25.40;95.20
7496;DHT22;3789;47.064;15.482;2022-07-22T05:26:27;25.20;95.70
7496;DHT22;3789;47.064;15.482;2022-07-22T05:28:59;25.00;95.70
7496;DHT22;3789;47.064;15.482;2022-07-22T05:31:26;24.90;96.10
7496;DHT22;3789;47.064;15.482;2022-07-22T05:33:54;24.90;95.90
7496;DHT22;3789;47.064;15.482;2022-07-22T05:36:21;25.00;96.00
7496;DHT22;3789;47.064;15.482;2022-07-22T05:38:49;24.90;96.00
7496;DHT22;3789;47.064;15.482;2022-07-22T05:41:17;24.90;96.00
7496;DHT22;3789;47.064;15.482;2022-07-22T05:43:44;25.30;96.10
7496;DHT22;3789;47.064;15.482;2022-07-22T05:46:11;25.70;95.90
7496;DHT22;3789;47.064;15.482;2022-07-22T05:48:38;25.90;95.40
7496;DHT22;3789;47.064;15.482;2022-07-22T05:51:11;26.00;95.60
7496;DHT22;3789;47.064;15.482;2022-07-22T05:53:40;26.10;95.30
7496;DHT22;3789;47.064;15.482;2022-07-22T05:56:09;26.20;94.20
7496;DHT22;3789;47.064;15.482;2022-07-22T05:58:39;26.20;94.50
7496;DHT22;3789;47.064;15.482;2022-07-22T06:01:07;26.20;94.80
7496;DHT22;3789;47.064;15.482;2022-07-22T06:03:35;26.50;94.00
7496;DHT22;3789;47.064;15.482;2022-07-22T06:06:02;27.00;93.80
7496;DHT22;3789;47.064;15.482;2022-07-22T06:08:31;27.40;92.90
7496;DHT22;3789;47.064;15.482;2022-07-22T06:10:58;28.00;93.80
7496;DHT22;3789;47.064;15.482;2022-07-22T06:13:26;28.70;91.90
7496;DHT22;3789;47.064;15.482;2022-07-22T06:15:53;29.20;91.70
7496;DHT22;3789;47.064;15.482;2022-07-22T06:18:20;29.10;90.60
7496;DHT22;3789;47.064;15.482;2022-07-22T06:20:48;29.10;90.70
7496;DHT22;3789;47.064;15.482;2022-07-22T06:23:15;29.40;91.70
7496;DHT22;3789;47.064;15.482;2022-07-22T06:25:42;29.70;91.40
7496;DHT22;3789;47.064;15.482;2022-07-22T06:28:10;29.90;90.70
7496;DHT22;3789;47.064;15.482;2022-07-22T06:30:38;30.00;90.60
7496;DHT22;3789;47.064;15.482;2022-07-22T06:33:07;30.20;90.60
7496;DHT22;3789;47.064;15.482;2022-07-22T06:35:34;30.40;90.70
7496;DHT22;3789;47.064;15.482;2022-07-22T06:38:02;30.40;89.10
7496;DHT22;3789;47.064;15.482;2022-07-22T06:40:33;30.60;90.20
7496;DHT22;3789;47.064;15.482;2022-07-22T06:43:01;30.90;87.30
7496;DHT22;3789;47.064;15.482;2022-07-22T06:45:30;30.90;88.60
7496;DHT22;3789;47.064;15.482;2022-07-22T06:47:57;30.80;88.30
7496;DHT22;3789;47.064;15.482;2022-07-22T06:50:24;30.70;85.90
7496;DHT22;3789;47.064;15.482;2022-07-22T06:52:53;30.50;86.70
7496;DHT22;3789;47.064;15.482;2022-07-22T06:55:20;30.50;90.00
7496;DHT22;3789;47.064;15.482;2022-07-22T06:57:47;30.60;87.80
7496;DHT22;3789;47.064;15.482;2022-07-22T07:00:15;30.80;88.80
7496;DHT22;3789;47.064;15.482;2022-07-22T07:02:42;30.90;88.60
7496;DHT22;3789;47.064;15.482;2022-07-22T07:05:10;31.00;86.70
7496;DHT22;3789;47.064;15.482;2022-07-22T07:07:46;31.20;87.20
7496;DHT22;3789;47.064;15.482;2022-07-22T07:10:13;31.20;85.30
7496;DHT22;3789;47.064;15.482;2022-07-22T07:12:43;31.40;85.90
7496;DHT22;3789;47.064;15.482;2022-07-22T07:15:10;31.40;83.80
7496;DHT22;3789;47.064;15.482;2022-07-22T07:17:55;31.50;83.80
7496;DHT22;3789;47.064;15.482;2022-07-22T07:20:24;31.70;83.50
7496;DHT22;3789;47.064;15.482;2022-07-22T07:22:52;31.80;82.40
7496;DHT22;3789;47.064;15.482;2022-07-22T07:25:19;32.00;82.30
7496;DHT22;3789;47.064;15.482;2022-07-22T07:27:51;32.00;80.00
7496;DHT22;3789;47.064;15.482;2022-07-22T07:30:20;32.20;79.40
7496;DHT22;3789;47.064;15.482;2022-07-22T07:32:48;32.30;79.90
7496;DHT22;3789;47.064;15.482;2022-07-22T07:35:15;32.30;79.60
7496;DHT22;3789;47.064;15.482;2022-07-22T07:37:42;32.20;80.90
7496;DHT22;3789;47.064;15.482;2022-07-22T07:40:28;31.90;81.70
7496;DHT22;3789;47.064;15.482;2022-07-22T07:42:56;32.00;82.40
7496;DHT22;3789;47.064;15.482;2022-07-22T07:45:30;32.20;80.70
7496;DHT22;3789;47.064;15.482;2022-07-22T07:47:57;32.20;78.30
7496;DHT22;3789;47.064;15.482;2022-07-22T07:50:25;32.40;79.90
7496;DHT22;3789;47.064;15.482;2022-07-22T07:52:52;32.40;79.70
7496;DHT22;3789;47.064;15.482;2022-07-22T07:55:20;32.50;83.50
7496;DHT22;3789;47.064;15.482;2022-07-22T07:57:48;32.60;81.50
7496;DHT22;3789;47.064;15.482;2022-07-22T08:00:21;32.80;81.60
7496;DHT22;3789;47.064;15.482;2022-07-22T08:02:49;32.60;81.50
7496;DHT22;3789;47.064;15.482;2022-07-22T08:05:17;32.10;81.10
7496;DHT22;3789;47.064;15.482;2022-07-22T08:07:47;31.80;83.70
7496;DHT22;3789;47.064;15.482;2022-07-22T08:10:16;32.10;81.30
7496;DHT22;3789;47.064;15.482;2022-07-22T08:13:04;32.40;81.50
7496;DHT22;3789;47.064;15.482;2022-07-22T08:15:31;32.70;82.40
7496;DHT22;3789;47.064;15.482;2022-07-22T08:17:59;32.80;79.60
7496;DHT22;3789;47.064;15.482;2022-07-22T08:20:29;32.90;80.10
7496;DHT22;3789;47.064;15.482;2022-07-22T08:22:57;33.10;80.70
7496;DHT22;3789;47.064;15.482;2022-07-22T08:25:25;33.30;81.40
7496;DHT22;3789;47.064;15.482;2022-07-22T08:27:52;33.10;79.90
7496;DHT22;3789;47.064;15.482;2022-07-22T08:30:20;32.90;81.30
7496;DHT22;3789;47.064;15.482;2022-07-22T08:32:47;32.90;80.60
7496;DHT22;3789;47.064;15.482;2022-07-22T08:35:15;33.00;79.10
7496;DHT22;3789;47.064;15.482;2022-07-22T08:37:42;33.20;79.20
7496;DHT22;3789;47.064;15.482;2022-07-22T08:40:12;33.30;78.80
7496;DHT22;3789;47.064;15.482;2022-07-22T08:42:41;33.50;78.00
7496;DHT22;3789;47.064;15.482;2022-07-22T08:45:10;33.60;76.30
7496;DHT22;3789;47.064;15.482;2022-07-22T08:47:49;33.80;77.60
7496;DHT22;3789;47.064;15.482;2022-07-22T08:50:17;33.80;81.10
7496;DHT22;3789;47.064;15.482;2022-07-22T08:52:47;33.80;76.80
7496;DHT22;3789;47.064;15.482;2022-07-22T08:55:14;33.90;78.10
7496;DHT22;3789;47.064;15.482;2022-07-22T08:57:49;33.90;78.40
7496;DHT22;3789;47.064;15.482;2022-07-22T09:00:20;34.00;76.60
7496;DHT22;3789;47.064;15.482;2022-07-22T09:02:47;33.80;74.70
7496;DHT22;3789;47.064;15.482;2022-07-22T09:05:16;33.70;72.90
7496;DHT22;3789;47.064;15.482;2022-07-22T09:08:04;33.10;73.10
7496;DHT22;3789;47.064;15.482;2022-07-22T09:10:33;33.10;77.30
7496;DHT22;3789;47.064;15.482;2022-07-22T09:13:03;33.10;76.00
7496;DHT22;3789;47.064;15.482;2022-07-22T09:15:33;33.10;77.00
7496;DHT22;3789;47.064;15.482;2022-07-22T09:18:04;33.20;78.00
7496;DHT22;3789;47.064;15.482;2022-07-22T09:20:34;33.40;78.50
7496;DHT22;3789;47.064;15.482;2022-07-22T09:23:09;33.70;79.30
7496;DHT22;3789;47.064;15.482;2022-07-22T09:25:38;33.80;78.40
7496;DHT22;3789;47.064;15.482;2022-07-22T09:30:40;34.00;77.60
7496;DHT22;3789;47.064;15.482;2022-07-22T09:33:10;34.10;76.60
7496;DHT22;3789;47.064;15.482;2022-07-22T09:35:38;34.10;77.60
7496;DHT22;3789;47.064;15.482;2022-07-22T09:38:16;34.10;76.10
7496;DHT22;3789;47.064;15.482;2022-07-22T09:40:45;34.00;78.90
7496;DHT22;3789;47.064;15.482;2022-07-22T09:43:18;33.70;76.80
7496;DHT22;3789;47.064;15.482;2022-07-22T09:45:52;33.50;81.20
7496;DHT22;3789;47.064;15.482;2022-07-22T09:48:26;33.70;79.20
7496;DHT22;3789;47.064;15.482;2022-07-22T09:50:55;33.70;80.40
7496;DHT22;3789;47.064;15.482;2022-07-22T09:53:28;33.80;79.00
7496;DHT22;3789;47.064;15.482;2022-07-22T09:56:01;34.00;77.10
7496;DHT22;3789;47.064;15.482;2022-07-22T09:58:29;34.20;76.00
7496;DHT22;3789;47.064;15.482;2022-07-22T10:01:03;34.40;76.40
7496;DHT22;3789;47.064;15.482;2022-07-22T10:03:35;34.30;76.80
7496;DHT22;3789;47.064;15.482;2022-07-22T10:06:05;34.30;75.20
7496;DHT22;3789;47.064;15.482;2022-07-22T10:08:33;34.40;75.90
7496;DHT22;3789;47.064;15.482;2022-07-22T10:11:04;34.70;76.70
7496;DHT22;3789;47.064;15.482;2022-07-22T10:13:33;34.70;76.70
7496;DHT22;3789;47.064;15.482;2022-07-22T10:16:01;34.20;74.10
7496;DHT22;3789;47.064;15.482;2022-07-22T10:18:30;33.70;77.30
7496;DHT22;3789;47.064;15.482;2022-07-22T10:21:05;33.80;78.70
7496;DHT22;3789;47.064;15.482;2022-07-22T10:23:33;34.10;76.40
7496;DHT22;3789;47.064;15.482;2022-07-22T10:26:02;34.20;75.50
7496;DHT22;3789;47.064;15.482;2022-07-22T10:28:38;34.30;74.40
7496;DHT22;3789;47.064;15.482;2022-07-22T10:31:23;34.40;72.90
7496;DHT22;3789;47.064;15.482;2022-07-22T10:33:53;34.40;74.10
7496;DHT22;3789;47.064;15.482;2022-07-22T10:36:33;34.50;75.30
7496;DHT22;3789;47.064;15.482;2022-07-22T10:39:10;34.50;73.70
7496;DHT22;3789;47.064;15.482;2022-07-22T10:41:43;34.40;75.60
7496;DHT22;3789;47.064;15.482;2022-07-22T10:44:46;34.20;72.30
7496;DHT22;3789;47.064;15.482;2022-07-22T10:48:16;33.50;76.30
7496;DHT22;3789;47.064;15.482;2022-07-22T10:54:03;32.60;84.40
7496;DHT22;3789;47.064;15.482;2022-07-22T10:56:17;32.90;79.20
7496;DHT22;3789;47.064;15.482;2022-07-22T10:58:50;33.10;77.90
7496;DHT22;3789;47.064;15.482;2022-07-22T11:01:22;33.30;76.40
7496;DHT22;3789;47.064;15.482;2022-07-22T11:03:50;33.60;75.90
7496;DHT22;3789;47.064;15.482;2022-07-22T11:06:21;33.60;76.10
7496;DHT22;3789;47.064;15.482;2022-07-22T11:08:55;33.50;77.60
7496;DHT22;3789;47.064;15.482;2022-07-22T11:14:00;33.80;76.10
7496;DHT22;3789;47.064;15.482;2022-07-22T11:16:28;33.80;74.50
7496;DHT22;3789;47.064;15.482;2022-07-22T11:18:59;33.70;76.50
7496;DHT22;3789;47.064;15.482;2022-07-22T11:21:29;33.70;76.80
7496;DHT22;3789;47.064;15.482;2022-07-22T11:23:58;33.70;76.60
7496;DHT22;3789;47.064;15.482;2022-07-22T11:26:47;33.60;75.60
7496;DHT22;3789;47.064;15.482;2022-07-22T11:29:35;33.50;74.50
7496;DHT22;3789;47.064;15.482;2022-07-22T11:32:05;33.50;73.70
7496;DHT22;3789;47.064;15.482;2022-07-22T11:34:39;33.50;73.30
7496;DHT22;3789;47.064;15.482;2022-07-22T11:37:09;33.40;74.50
7496;DHT22;3789;47.064;15.482;2022-07-22T11:39:36;33.00;78.00
7496;DHT22;3789;47.064;15.482;2022-07-22T11:42:04;33.10;77.90
7496;DHT22;3789;47.064;15.482;2022-07-22T11:44:34;33.20;75.90
7496;DHT22;3789;47.064;15.482;2022-07-22T11:47:03;33.20;77.40
7496;DHT22;3789;47.064;15.482;2022-07-22T11:49:32;33.20;77.00
7496;DHT22;3789;47.064;15.482;2022-07-22T11:52:05;33.20;73.60
7496;DHT22;3789;47.064;15.482;2022-07-22T11:54:34;33.30;76.00
7496;DHT22;3789;47.064;15.482;2022-07-22T11:57:02;33.40;72.90
7496;DHT22;3789;47.064;15.482;2022-07-22T11:59:29;33.20;75.20
7496;DHT22;3789;47.064;15.482;2022-07-22T12:01:56;33.00;77.00
7496;DHT22;3789;47.064;15.482;2022-07-22T12:04:25;32.60;75.40
7496;DHT22;3789;47.064;15.482;2022-07-22T12:06:54;32.40;78.30
7496;DHT22;3789;47.064;15.482;2022-07-22T12:09:26;32.50;75.40
7496;DHT22;3789;47.064;15.482;2022-07-22T12:11:57;32.60;73.10
7496;DHT22;3789;47.064;15.482;2022-07-22T12:14:27;32.70;75.30
7496;DHT22;3789;47.064;15.482;2022-07-22T12:17:06;32.80;74.30
7496;DHT22;3789;47.064;15.482;2022-07-22T12:19:35;32.80;74.50
7496;DHT22;3789;47.064;15.482;2022-07-22T12:22:11;32.80;75.50
7496;DHT22;3789;47.064;15.482;2022-07-22T12:24:45;32.70;77.10
7496;DHT22;3789;47.064;15.482;2022-07-22T12:27:17;32.80;77.30
7496;DHT22;3789;47.064;15.482;2022-07-22T12:29:46;32.90;76.70
7496;DHT22;3789;47.064;15.482;2022-07-22T12:40:02;32.80;76.60
7496;DHT22;3789;47.064;15.482;2022-07-22T12:42:36;32.10;78.80
7496;DHT22;3789;47.064;15.482;2022-07-22T12:45:13;32.10;78.70
7496;DHT22;3789;47.064;15.482;2022-07-22T12:47:52;32.20;79.00
7496;DHT22;3789;47.064;15.482;2022-07-22T12:50:37;32.40;78.20
7496;DHT22;3789;47.064;15.482;2022-07-22T12:53:15;32.60;77.80
7496;DHT22;3789;47.064;15.482;2022-07-22T12:55:54;32.60;77.80
7496;DHT22;3789;47.064;15.482;2022-07-22T12:58:28;32.60;81.60
7496;DHT22;3789;47.064;15.482;2022-07-22T13:00:58;32.60;79.00
7496;DHT22;3789;47.064;15.482;2022-07-22T13:03:27;32.60;79.80
7496;DHT22;3789;47.064;15.482;2022-07-22T13:05:56;32.60;78.50
7496;DHT22;3789;47.064;15.482;2022-07-22T13:08:24;32.70;78.70
7496;DHT22;3789;47.064;15.482;2022-07-22T13:10:55;32.80;80.00
7496;DHT22;3789;47.064;15.482;2022-07-22T13:13:22;32.70;78.40
7496;DHT22;3789;47.064;15.482;2022-07-22T13:15:50;32.80;79.40
7496;DHT22;3789;47.064;15.482;2022-07-22T13:18:18;32.80;76.70
7496;DHT22;3789;47.064;15.482;2022-07-22T13:20:45;32.80;77.40
7496;DHT22;3789;47.064;15.482;2022-07-22T13:23:14;32.80;76.70
7496;DHT22;3789;47.064;15.482;2022-07-22T13:25:41;32.80;77.70
7496;DHT22;3789;47.064;15.482;2022-07-22T13:28:09;32.80;76.70
7496;DHT22;3789;47.064;15.482;2022-07-22T13:30:36;32.70;76.60
7496;DHT22;3789;47.064;15.482;2022-07-22T13:33:04;32.70;78.20
7496;DHT22;3789;47.064;15.482;2022-07-22T13:35:31;32.70;77.70
7496;DHT22;3789;47.064;15.482;2022-07-22T13:37:58;32.80;78.20
7496;DHT22;3789;47.064;15.482;2022-07-22T13:40:26;32.90;79.60
7496;DHT22;3789;47.064;15.482;2022-07-22T13:42:53;32.90;77.60
7496;DHT22;3789;47.064;15.482;2022-07-22T13:45:20;32.90;77.60
7496;DHT22;3789;47.064;15.482;2022-07-22T13:47:47;32.80;78.40
7496;DHT22;3789;47.064;15.482;2022-07-22T13:50:14;32.80;79.40
7496;DHT22;3789;47.064;15.482;2022-07-22T13:52:41;32.80;79.00
7496;DHT22;3789;47.064;15.482;2022-07-22T13:55:13;32.70;77.60
7496;DHT22;3789;47.064;15.482;2022-07-22T13:57:41;32.40;79.30
7496;DHT22;3789;47.064;15.482;2022-07-22T14:00:09;32.20;79.60
7496;DHT22;3789;47.064;15.482;2022-07-22T14:02:43;32.00;81.00
7496;DHT22;3789;47.064;15.482;2022-07-22T14:05:11;31.90;80.40
7496;DHT22;3789;47.064;15.482;2022-07-22T14:07:38;32.00;80.90
7496;DHT22;3789;47.064;15.482;2022-07-22T14:10:08;32.10;79.70
7496;DHT22;3789;47.064;15.482;2022-07-22T14:12:35;32.10;80.10
7496;DHT22;3789;47.064;15.482;2022-07-22T14:15:02;32.00;79.40
7496;DHT22;3789;47.064;15.482;2022-07-22T14:17:30;32.00;79.80
7496;DHT22;3789;47.064;15.482;2022-07-22T14:19:57;31.90;78.70
7496;DHT22;3789;47.064;15.482;2022-07-22T14:22:28;31.90;80.60
7496;DHT22;3789;47.064;15.482;2022-07-22T14:24:55;31.80;81.50
7496;DHT22;3789;47.064;15.482;2022-07-22T14:27:22;31.90;80.00
7496;DHT22;3789;47.064;15.482;2022-07-22T14:29:49;32.00;79.20
7496;DHT22;3789;47.064;15.482;2022-07-22T14:32:16;32.20;79.70
7496;DHT22;3789;47.064;15.482;2022-07-22T14:34:43;32.20;79.70
7496;DHT22;3789;47.064;15.482;2022-07-22T14:37:11;32.20;79.60
7496;DHT22;3789;47.064;15.482;2022-07-22T14:39:38;32.20;79.40
7496;DHT22;3789;47.064;15.482;2022-07-22T14:42:05;32.20;80.50
7496;DHT22;3789;47.064;15.482;2022-07-22T14:44:32;32.30;79.20
7496;DHT22;3789;47.064;15.482;2022-07-22T14:46:59;32.20;79.40
7496;DHT22;3789;47.064;15.482;2022-07-22T14:49:26;32.10;78.90
7496;DHT22;3789;47.064;15.482;2022-07-22T14:51:53;32.10;80.80
7496;DHT22;3789;47.064;15.482;2022-07-22T14:54:20;32.00;78.70
7496;DHT22;3789;47.064;15.482;2022-07-22T14:56:47;32.10;80.10
7496;DHT22;3789;47.064;15.482;2022-07-22T14:59:15;32.10;80.60
7496;DHT22;3789;47.064;15.482;2022-07-22T15:01:42;32.10;79.30
7496;DHT22;3789;47.064;15.482;2022-07-22T15:04:09;32.10;78.80
7496;DHT22;3789;47.064;15.482;2022-07-22T15:06:36;32.20;78.90
7496;DHT22;3789;47.064;15.482;2022-07-22T15:09:04;32.10;78.40
7496;DHT22;3789;47.064;15.482;2022-07-22T15:11:31;32.00;80.50
7496;DHT22;3789;47.064;15.482;2022-07-22T15:13:58;32.00;79.70
7496;DHT22;3789;47.064;15.482;2022-07-22T15:16:27;32.00;79.40
7496;DHT22;3789;47.064;15.482;2022-07-22T15:18:55;32.00;80.30
7496;DHT22;3789;47.064;15.482;2022-07-22T15:21:22;32.00;79.80
7496;DHT22;3789;47.064;15.482;2022-07-22T15:23:57;32.00;79.50
7496;DHT22;3789;47.064;15.482;2022-07-22T15:26:26;31.90;79.20
7496;DHT22;3789;47.064;15.482;2022-07-22T15:28:54;31.90;79.80
7496;DHT22;3789;47.064;15.482;2022-07-22T15:31:21;31.80;79.70
7496;DHT22;3789;47.064;15.482;2022-07-22T15:33:49;31.80;80.00
7496;DHT22;3789;47.064;15.482;2022-07-22T15:36:16;31.80;80.00
7496;DHT22;3789;47.064;15.482;2022-07-22T15:38:44;31.80;80.30
7496;DHT22;3789;47.064;15.482;2022-07-22T15:41:11;31.70;80.70
7496;DHT22;3789;47.064;15.482;2022-07-22T15:43:40;31.60;81.40
7496;DHT22;3789;47.064;15.482;2022-07-22T15:46:07;31.60;81.00
7496;DHT22;3789;47.064;15.482;2022-07-22T15:48:36;31.60;81.20
7496;DHT22;3789;47.064;15.482;2022-07-22T15:51:03;31.50;81.30
7496;DHT22;3789;47.064;15.482;2022-07-22T15:53:31;31.30;77.70
7496;DHT22;3789;47.064;15.482;2022-07-22T15:55:58;31.30;80.50
7496;DHT22;3789;47.064;15.482;2022-07-22T15:58:26;30.90;75.00
7496;DHT22;3789;47.064;15.482;2022-07-22T16:01:31;30.70;82.30
7496;DHT22;3789;47.064;15.482;2022-07-22T16:03:59;30.90;83.10
7496;DHT22;3789;47.064;15.482;2022-07-22T16:06:26;31.10;81.80
7496;DHT22;3789;47.064;15.482;2022-07-22T16:08:54;31.10;82.30
7496;DHT22;3789;47.064;15.482;2022-07-22T16:11:23;31.10;82.80
7496;DHT22;3789;47.064;15.482;2022-07-22T16:13:50;31.10;82.60
7496;DHT22;3789;47.064;15.482;2022-07-22T16:16:18;31.10;82.90